Time;durP1;ratioP1;P1;durP2;ratioP2;P2;SDS_P1;SDS_P2;PMS_P1;PMS_P2;Temp;Humidity;BMP_temperature;BMP_pressure;BME280_temperature;BME280_humidity;BME280_pressure;Samples;Min_cycle;Max_cycle;Signal;HPM_P1;HPM_P2
2022/04/18 00:02:07;;;;;;;17.58;10.00;;;;;;;12.28;33.69;101975.59;4971358;28;123761;-78
2022/04/18 00:04:34;;;;;;;14.30;9.27;;;;;;;12.24;33.69;101974.84;4963830;28;119433;-77
2022/04/18 00:07:02;;;;;;;17.20;10.07;;;;;;;12.20;33.85;101967.88;4974174;28;118234;-77
2022/04/18 00:09:30;;;;;;;15.20;9.23;;;;;;;12.16;33.84;101968.91;4949453;28;124754;-77
2022/04/18 00:11:57;;;;;;;16.40;9.68;;;;;;;12.13;33.70;101971.69;4948017;28;123733;-77
2022/04/18 00:14:25;;;;;;;16.83;9.70;;;;;;;12.10;33.78;101971.78;4948778;28;119809;-77
2022/04/18 00:16:52;;;;;;;16.30;10.10;;;;;;;12.06;34.20;101964.84;4963421;28;118381;-76
2022/04/18 00:19:19;;;;;;;16.30;10.00;;;;;;;12.01;33.98;101974.72;4951775;28;124003;-77
2022/04/18 00:21:46;;;;;;;15.82;9.88;;;;;;;11.98;34.18;101972.16;4962837;28;123236;-77
2022/04/18 00:24:14;;;;;;;16.50;10.48;;;;;;;11.95;34.05;101961.66;4951658;28;119365;-77
2022/04/18 00:26:42;;;;;;;17.83;10.02;;;;;;;11.94;34.35;101970.53;4948765;28;119161;-77
2022/04/18 00:29:10;;;;;;;14.60;9.80;;;;;;;11.92;34.18;101961.75;4949819;28;123712;-76
2022/04/18 00:31:37;;;;;;;16.35;10.25;;;;;;;11.88;34.32;101961.84;4969753;28;123072;-77
2022/04/18 00:34:05;;;;;;;16.13;9.73;;;;;;;11.83;34.38;101961.13;4956826;28;119006;-77
2022/04/18 00:36:33;;;;;;;19.83;10.38;;;;;;;11.80;34.37;101958.56;4958009;28;120101;-77
2022/04/18 00:39:00;;;;;;;15.93;9.43;;;;;;;11.75;34.10;101965.78;4954144;28;124268;-77
2022/04/18 00:41:27;;;;;;;17.50;10.27;;;;;;;11.72;34.39;101965.03;4948688;28;125785;-77
2022/04/18 00:43:55;;;;;;;13.63;8.68;;;;;;;11.67;34.42;101957.22;4954407;28;119256;-77
2022/04/18 00:46:22;;;;;;;13.93;8.95;;;;;;;11.63;34.76;101960.88;4949399;28;119271;-77
2022/04/18 00:48:50;;;;;;;14.73;9.07;;;;;;;11.61;34.64;101962.72;4953600;28;124486;-77
2022/04/18 00:51:21;;;;;;;14.32;9.70;;;;;;;11.58;34.81;101963.66;4959481;28;121965;-77
2022/04/18 00:53:51;;;;;;;15.45;9.48;;;;;;;11.56;34.60;101964.63;4955284;28;118259;-77
2022/04/18 00:56:19;;;;;;;14.68;9.23;;;;;;;11.53;34.84;101959.41;4951180;28;118212;-77
2022/04/18 00:58:47;;;;;;;14.23;8.90;;;;;;;11.48;34.67;101960.44;4950134;28;122933;-77
2022/04/18 01:01:16;;;;;;;16.92;9.95;;;;;;;11.43;34.84;101954.44;4954979;28;124684;-77
2022/04/18 01:03:47;;;;;;;15.70;9.60;;;;;;;11.39;34.77;101952.75;4966185;28;119167;-78
2022/04/18 01:06:15;;;;;;;12.73;7.95;;;;;;;11.34;34.84;101954.69;4967094;28;118534;-77
2022/04/18 01:08:43;;;;;;;14.43;8.02;;;;;;;11.28;34.71;101950.44;4947212;28;125278;-77
2022/04/18 01:11:10;;;;;;;11.48;7.93;;;;;;;11.24;35.08;101947.91;4945893;28;123380;-77
2022/04/18 01:14:03;;;;;;;12.43;7.57;;;;;;;11.20;35.06;101940.97;4954196;28;119778;-77
2022/04/18 01:16:54;;;;;;;11.00;6.85;;;;;;;11.16;34.85;101939.34;4949777;28;118387;-77
2022/04/18 01:19:25;;;;;;;8.73;5.78;;;;;;;11.10;34.85;101943.91;4971042;28;123766;-77
2022/04/18 01:22:22;;;;;;;10.90;6.30;;;;;;;11.06;34.77;101939.59;4950283;28;124124;-77
2022/04/18 01:30:25;;;;;;;11.88;5.45;;;;;;;10.98;35.11;101938.97;4967178;28;124176;-77
2022/04/18 01:32:52;;;;;;;8.20;5.72;;;;;;;10.97;35.45;101931.91;4940444;28;123063;-77
2022/04/18 01:35:20;;;;;;;8.70;5.38;;;;;;;10.97;35.49;101926.63;4948764;28;118920;-77
2022/04/18 01:37:48;;;;;;;9.75;5.43;;;;;;;10.96;35.52;101927.53;4954137;28;118123;-77
2022/04/18 01:40:17;;;;;;;9.20;5.20;;;;;;;10.96;35.35;101932.81;4951530;28;123036;-77
2022/04/18 01:42:44;;;;;;;6.93;4.50;;;;;;;10.94;35.49;101934.66;4952607;28;122725;-78
2022/04/18 01:45:14;;;;;;;8.98;5.10;;;;;;;10.93;35.41;101932.94;4953170;28;118235;-77
2022/04/18 01:47:45;;;;;;;9.70;4.88;;;;;;;10.90;35.57;101928.56;4952589;28;118443;-77
2022/04/18 01:50:14;;;;;;;6.68;4.50;;;;;;;10.88;35.40;101934.84;4968061;28;123402;-77
2022/04/18 01:52:41;;;;;;;7.32;4.35;;;;;;;10.85;35.59;101935.81;4971399;28;123363;-77
2022/04/18 01:55:08;;;;;;;5.40;4.07;;;;;;;10.83;35.60;101931.44;4951680;28;118736;-77
2022/04/18 01:57:35;;;;;;;7.75;3.97;;;;;;;10.81;35.47;101927.97;4946280;28;117832;-78
2022/04/18 02:00:03;;;;;;;7.25;4.28;;;;;;;10.82;35.57;101929.72;4960668;28;124316;-78
2022/04/18 02:02:40;;;;;;;6.70;4.10;;;;;;;10.82;35.52;101929.72;4948508;28;125060;-78
2022/04/18 02:05:07;;;;;;;6.50;3.80;;;;;;;10.81;35.33;101927.97;4947849;28;119081;-77
2022/04/18 02:07:38;;;;;;;7.68;4.70;;;;;;;10.80;35.75;101920.94;4952670;28;118749;-77
2022/04/18 02:10:07;;;;;;;6.75;3.92;;;;;;;10.78;35.45;101920.13;4946618;28;124400;-77
2022/04/18 02:12:36;;;;;;;6.25;4.20;;;;;;;10.76;35.73;101924.59;4965226;28;123225;-77
2022/04/18 02:15:06;;;;;;;7.80;4.20;;;;;;;10.71;35.48;101914.97;4962857;28;119446;-78
2022/04/18 02:17:42;;;;;;;6.28;4.03;;;;;;;10.68;35.71;101923.03;4963538;28;119465;-77
2022/04/18 02:20:10;;;;;;;6.90;4.03;;;;;;;10.67;35.39;101920.41;4947272;28;125058;-78
2022/04/18 02:22:37;;;;;;;5.30;3.70;;;;;;;10.64;35.55;101920.50;4950160;28;123972;-77
2022/04/18 02:25:05;;;;;;;5.30;3.67;;;;;;;10.61;35.72;101910.00;4949116;28;118419;-78
2022/04/18 02:27:32;;;;;;;6.00;3.75;;;;;;;10.57;35.77;101911.88;4960296;28;117060;-77
2022/04/18 02:30:06;;;;;;;7.60;4.20;;;;;;;10.55;35.56;101911.03;4963121;28;123187;-77
2022/04/18 02:32:48;;;;;;;7.25;3.85;;;;;;;10.52;35.87;101911.13;4962755;28;122085;-77
2022/04/18 02:35:21;;;;;;;6.43;3.50;;;;;;;10.48;35.63;101909.47;4936860;28;119021;-78
2022/04/18 02:37:53;;;;;;;5.25;3.50;;;;;;;10.45;35.65;101914.84;4961582;28;118226;-77
2022/04/18 02:40:24;;;;;;;4.40;3.13;;;;;;;10.42;35.55;101914.94;4943428;28;123709;-78
2022/04/18 02:42:53;;;;;;;4.57;3.38;;;;;;;10.39;35.68;101915.00;4966355;28;123513;-77
2022/04/18 02:45:20;;;;;;;5.72;3.40;;;;;;;10.36;35.76;101909.78;4946760;28;119418;-78
2022/04/18 02:48:06;;;;;;;7.45;3.78;;;;;;;10.32;35.79;101904.59;4949762;28;120172;-77
2022/04/18 02:50:36;;;;;;;5.13;3.40;;;;;;;10.27;35.76;101909.09;4960276;28;123751;-77
2022/04/18 02:53:08;;;;;;;7.07;3.85;;;;;;;10.23;35.85;101906.59;4947698;28;123438;-77
2022/04/18 02:55:41;;;;;;;5.90;3.60;;;;;;;10.19;35.71;101908.44;4934441;28;118875;-77
2022/04/18 02:58:09;;;;;;;4.57;3.30;;;;;;;10.12;35.96;101906.88;4946528;28;117758;-77
2022/04/18 03:00:37;;;;;;;5.38;3.50;;;;;;;10.07;36.10;101903.47;4965431;28;123875;-77
2022/04/18 03:03:04;;;;;;;6.18;3.92;;;;;;;10.03;36.00;101901.81;4970397;28;123352;-77
2022/04/18 03:05:34;;;;;;;5.38;3.42;;;;;;;9.99;35.90;101902.78;4950656;28;121602;-77
2022/04/18 03:08:02;;;;;;;5.32;3.53;;;;;;;9.93;36.43;101899.38;4948072;28;119119;-77
2022/04/18 03:13:20;;;;;;;5.88;3.53;;;;;;;9.85;36.39;101890.78;4961355;28;123694;-77
2022/04/18 03:15:47;;;;;;;5.50;3.58;;;;;;;9.81;36.56;101890.88;4966923;28;118941;-77
2022/04/18 03:18:15;;;;;;;7.93;3.65;;;;;;;9.77;36.37;101884.81;4948473;28;118715;-77
2022/04/18 03:20:42;;;;;;;5.35;3.47;;;;;;;9.72;36.39;101886.72;4970172;28;124384;-77
2022/04/18 03:23:09;;;;;;;5.75;3.58;;;;;;;9.67;36.50;101888.59;4953831;28;123715;-77
2022/04/18 03:25:55;;;;;;;;;;;;;;;9.60;36.18;101892.28;4962407;28;119694;-77
2022/04/18 03:28:25;;;;;;;5.90;3.47;;;;;;;9.59;36.50;101886.13;4964966;28;118368;-77
2022/04/18 03:30:53;;;;;;;6.57;3.58;;;;;;;9.57;36.40;101887.06;4966275;28;124869;-77
2022/04/18 03:33:20;;;;;;;5.75;3.67;;;;;;;9.53;36.35;101881.88;4969805;28;123427;-77
2022/04/18 03:41:19;;;;;;;5.43;3.25;;;;;;;9.43;36.52;101884.75;4948391;28;123544;-77
2022/04/18 03:43:46;;;;;;;5.72;3.47;;;;;;;9.38;36.58;101882.22;4951898;28;123770;-77
2022/04/18 03:46:13;;;;;;;5.18;3.50;;;;;;;9.35;36.92;101877.00;4937682;28;118748;-78
2022/04/18 03:48:40;;;;;;;5.05;3.42;;;;;;;9.32;36.80;101882.34;4947913;28;117928;-77
2022/04/18 03:51:07;;;;;;;6.30;3.60;;;;;;;9.27;36.86;101879.81;4963091;28;124658;-77
2022/04/18 03:53:35;;;;;;;6.30;3.42;;;;;;;9.24;37.34;101879.88;4966193;28;124125;-77
2022/04/18 03:56:02;;;;;;;4.90;3.22;;;;;;;9.23;37.17;101882.56;4946962;28;119788;-76
2022/04/18 03:58:52;;;;;;;6.20;3.72;;;;;;;9.20;36.96;101885.28;4952480;28;119806;-77
2022/04/18 04:01:22;;;;;;;5.40;3.50;;;;;;;9.16;37.08;101877.41;4957271;28;123382;-77
2022/04/18 04:03:49;;;;;;;6.90;3.35;;;;;;;9.13;37.38;101877.47;4958048;28;123086;-77
2022/04/18 04:06:17;;;;;;;6.10;3.25;;;;;;;9.10;37.34;101872.28;4969495;28;118944;-77
2022/04/18 04:08:45;;;;;;;5.95;3.40;;;;;;;9.08;37.58;101874.09;4955711;28;118331;-77
2022/04/18 04:11:14;;;;;;;5.93;3.30;;;;;;;9.04;37.42;101872.44;4963424;28;123391;-77
2022/04/18 04:13:45;;;;;;;7.28;3.72;;;;;;;8.99;37.31;101884.84;4947891;28;123404;-77
2022/04/18 04:16:18;;;;;;;6.15;3.67;;;;;;;8.95;37.41;101883.19;4965129;28;119287;-78
2022/04/18 04:18:49;;;;;;;7.03;3.50;;;;;;;8.91;37.32;101881.50;4936562;28;118109;-77
2022/04/18 04:21:16;;;;;;;5.95;3.65;;;;;;;8.87;37.50;101874.53;4956145;28;123871;-77
2022/04/18 04:23:44;;;;;;;6.32;3.50;;;;;;;8.84;37.46;101874.63;4963273;28;123384;-77
2022/04/18 04:26:31;;;;;;;6.47;3.80;;;;;;;8.80;37.83;101872.94;4962004;28;120633;-77
2022/04/18 04:28:59;;;;;;;6.65;4.05;;;;;;;8.75;37.51;101879.19;4964111;28;118155;-77
2022/04/18 04:31:31;;;;;;;6.72;3.60;;;;;;;8.73;37.55;101878.34;4967177;28;123811;-77
2022/04/18 04:33:59;;;;;;;5.97;3.50;;;;;;;8.70;38.03;101877.53;4967190;28;123262;-77
2022/04/18 04:36:29;;;;;;;9.02;3.75;;;;;;;8.67;38.01;101883.75;4932339;28;118987;-77
2022/04/18 04:38:58;;;;;;;5.93;3.70;;;;;;;8.64;37.83;101873.25;4963590;28;118713;-77
2022/04/18 04:41:32;;;;;;;5.97;3.60;;;;;;;8.60;37.79;101871.56;4951439;28;123454;-77
2022/04/18 04:44:00;;;;;;;5.22;3.35;;;;;;;8.56;37.83;101876.03;4971670;28;124465;-77
2022/04/18 04:46:37;;;;;;;5.93;3.65;;;;;;;8.54;37.81;101887.56;4951760;28;120121;-77
2022/04/18 04:49:09;;;;;;;5.25;3.40;;;;;;;8.51;37.90;101887.59;4973655;28;119138;-77
2022/04/18 04:51:41;;;;;;;5.88;3.40;;;;;;;8.50;38.20;101880.59;4973380;28;123888;-77
2022/04/18 04:54:08;;;;;;;6.90;3.03;;;;;;;8.50;38.45;101888.50;4968216;28;122210;-77
2022/04/18 04:56:39;;;;;;;9.02;3.45;;;;;;;8.48;38.13;101877.13;4950951;28;118065;-77
2022/04/18 04:59:08;;;;;;;4.82;3.50;;;;;;;8.47;38.50;101885.91;4968139;28;118058;-77
2022/04/18 05:01:35;;;;;;;7.20;3.45;;;;;;;8.46;38.38;101884.19;4947274;28;123659;-77
2022/04/18 05:04:04;;;;;;;5.25;3.40;;;;;;;8.46;38.63;101884.19;4949625;28;123335;-77
2022/04/18 05:06:33;;;;;;;5.63;3.47;;;;;;;8.45;38.28;101887.72;4933626;28;119359;-77
2022/04/18 05:09:03;;;;;;;7.32;3.60;;;;;;;8.46;38.55;101884.19;4951729;28;119004;-77
2022/04/18 05:11:33;;;;;;;6.35;3.65;;;;;;;8.48;38.43;101882.41;4950888;28;123553;-77
2022/04/18 05:14:02;;;;;;;6.93;3.63;;;;;;;8.49;38.94;101870.91;4949700;28;122153;-77
2022/04/18 05:16:40;;;;;;;6.15;3.22;;;;;;;8.51;38.70;101882.31;4953915;28;118470;-77
2022/04/18 05:19:18;;;;;;;5.82;3.22;;;;;;;8.52;38.55;101878.78;4948810;28;118582;-77
2022/04/18 05:21:46;;;;;;;4.32;2.85;;;;;;;8.52;38.76;101884.06;4955051;28;124978;-77
2022/04/18 05:24:19;;;;;;;5.95;3.63;;;;;;;8.54;38.77;101892.84;4946688;28;122986;-77
2022/04/18 05:26:46;;;;;;;6.82;3.17;;;;;;;8.56;39.10;101885.75;4948271;28;119454;-77
2022/04/18 05:29:15;;;;;;;7.22;3.58;;;;;;;8.60;38.91;101887.41;4965196;28;118657;-77
2022/04/18 05:31:44;;;;;;;6.80;3.10;;;;;;;8.65;39.24;101890.84;4966397;28;123783;-77
2022/04/18 05:34:11;;;;;;;5.30;3.60;;;;;;;8.71;39.18;101885.44;4962022;28;123195;-77
2022/04/18 05:36:55;;;;;;;4.32;3.03;;;;;;;8.76;38.96;101894.13;4951038;28;120343;-77
2022/04/18 05:39:50;;;;;;;4.60;3.47;;;;;;;8.83;39.00;101894.00;4946976;28;119016;-77
2022/04/18 05:42:22;;;;;;;5.95;3.05;;;;;;;8.88;39.08;101884.22;4933767;28;123868;-77
2022/04/18 05:44:51;;;;;;;5.03;3.25;;;;;;;8.95;39.04;101893.75;4965596;28;123528;-77
2022/04/18 05:47:18;;;;;;;5.75;3.30;;;;;;;9.00;38.92;101896.28;4948892;28;119425;-77
2022/04/18 05:49:45;;;;;;;6.90;2.90;;;;;;;9.04;39.30;101893.56;4951289;28;118634;-77
2022/04/18 05:52:15;;;;;;;5.60;3.15;;;;;;;9.11;39.18;101892.50;4948818;28;123398;-77
2022/04/18 05:54:46;;;;;;;5.13;2.97;;;;;;;9.21;39.24;101900.22;4969845;28;123996;-77
2022/04/18 05:57:14;;;;;;;6.15;3.22;;;;;;;9.29;39.30;101898.31;4943365;28;118664;-77
2022/04/18 05:59:48;;;;;;;4.07;3.00;;;;;;;9.36;39.04;101891.94;4947293;28;119256;-78
2022/04/18 06:02:18;;;;;;;4.18;2.58;;;;;;;9.45;39.32;101897.03;4947801;28;123300;-77
2022/04/18 06:05:02;;;;;;;6.88;3.22;;;;;;;9.56;38.95;101896.78;4963609;28;123240;-77
2022/04/18 06:07:48;;;;;;;5.28;2.72;;;;;;;9.68;39.38;101895.59;4964932;28;119204;-77
2022/04/18 06:10:21;;;;;;;5.25;2.75;;;;;;;9.79;39.20;101893.56;4948078;28;119361;-77
2022/04/18 06:12:54;;;;;;;6.68;2.90;;;;;;;9.91;38.95;101898.56;4932635;28;123594;-77
2022/04/18 06:15:22;;;;;;;5.28;2.53;;;;;;;10.05;38.97;101905.28;4961416;28;122589;-77
2022/04/18 06:17:49;;;;;;;4.13;2.67;;;;;;;10.20;39.35;101894.28;4945015;28;118307;-77
2022/04/18 06:20:17;;;;;;;4.40;2.80;;;;;;;10.38;39.17;101898.25;4961127;28;118476;-77
2022/04/18 06:22:44;;;;;;;4.80;2.65;;;;;;;10.57;39.12;101898.63;4960553;28;123259;-77
2022/04/18 06:25:13;;;;;;;6.80;2.85;;;;;;;10.74;39.09;101891.94;4966324;28;122932;-78
2022/04/18 06:27:40;;;;;;;5.80;2.78;;;;;;;10.89;38.96;101889.75;4964288;28;119914;-77
2022/04/18 06:30:08;;;;;;;5.13;2.60;;;;;;;11.07;38.93;101883.00;4961200;28;119574;-77
2022/04/18 06:32:55;;;;;;;5.18;2.50;;;;;;;11.30;38.91;101884.06;4949153;28;124074;-77
2022/04/18 06:35:22;;;;;;;4.97;2.47;;;;;;;11.48;38.96;101883.50;4945590;28;122928;-77
2022/04/18 06:37:49;;;;;;;5.68;3.10;;;;;;;11.66;38.94;101886.50;4951214;28;119116;-78
2022/04/18 06:40:48;;;;;;;3.65;2.28;;;;;;;11.90;38.84;101894.56;4963191;28;120207;-78
2022/04/18 06:43:17;;;;;;;5.38;2.60;;;;;;;12.09;38.77;101887.72;4949616;28;123258;-78
2022/04/18 06:45:50;;;;;;;6.10;2.70;;;;;;;12.31;38.47;101889.63;4950900;28;122933;-78
2022/04/18 06:48:17;;;;;;;4.07;2.42;;;;;;;12.52;38.65;101894.16;4954006;28;118779;-77
2022/04/18 06:51:10;;;;;;;4.25;2.50;;;;;;;12.79;38.46;101896.72;4948388;28;118898;-78
2022/04/18 06:53:57;;;;;;;4.20;2.60;;;;;;;13.05;37.77;101904.59;4950656;28;124219;-77
2022/04/18 06:57:16;;;;;;;4.20;2.60;;;;;;;13.31;37.84;101894.75;4968507;28;123306;-78
2022/04/18 06:59:46;;;;;;;5.35;2.70;;;;;;;13.60;37.46;101890.94;4946703;28;118387;-78
2022/04/18 07:02:16;;;;;;;3.75;2.40;;;;;;;13.85;37.20;101889.06;4934951;28;118902;-79
2022/04/18 07:04:43;;;;;;;6.28;2.60;;;;;;;14.09;37.04;101893.34;4950733;28;123763;-78
2022/04/18 07:07:11;;;;;;;4.63;2.60;;;;;;;14.31;37.09;101884.41;4950161;28;123396;-78
2022/04/18 07:09:38;;;;;;;3.33;2.28;;;;;;;14.55;36.99;101883.31;4960558;28;118499;-78
2022/04/18 07:12:11;;;;;;;5.28;2.80;;;;;;;14.80;36.85;101890.22;4961573;28;118523;-78
2022/04/18 07:14:39;;;;;;;4.38;2.45;;;;;;;15.06;36.71;101888.16;4952690;28;123670;-79
2022/04/18 07:17:09;;;;;;;4.05;2.40;;;;;;;15.28;36.53;101886.19;4966019;28;123275;-78
2022/04/18 07:19:37;;;;;;;3.80;2.50;;;;;;;15.55;36.21;101893.78;4954688;28;120304;-76
2022/04/18 07:22:14;;;;;;;;;;;;;;;15.74;36.34;101889.28;4954689;28;119222;-76
2022/04/18 07:24:43;;;;;;;4.00;2.20;;;;;;;15.98;36.04;101891.66;4936981;28;124127;-76
2022/04/18 07:27:10;;;;;;;3.90;2.30;;;;;;;16.20;35.61;101885.22;4947335;28;122372;-77
2022/04/18 07:29:45;;;;;;;4.38;2.58;;;;;;;16.41;35.38;101892.13;4951053;28;120156;-78
2022/04/18 07:32:12;;;;;;;3.55;2.30;;;;;;;16.61;35.05;101884.84;4960729;28;118734;-75
2022/04/18 07:34:40;;;;;;;4.45;2.50;;;;;;;16.79;34.93;101885.66;4960663;28;124398;-75
2022/04/18 07:37:15;;;;;;;3.92;2.47;;;;;;;16.99;34.55;101889.94;4960919;28;123358;-76
2022/04/18 07:39:43;;;;;;;4.05;2.58;;;;;;;17.13;33.96;101879.34;4930489;28;118465;-78
2022/04/18 07:42:12;;;;;;;6.78;2.78;;;;;;;17.22;33.76;101886.84;4936458;28;118583;-76
2022/04/18 07:44:39;;;;;;;4.00;2.50;;;;;;;17.32;33.57;101877.34;4952943;28;123212;-76
2022/04/18 07:47:09;;;;;;;3.83;2.45;;;;;;;17.43;33.38;101879.41;4948939;28;124511;-76
2022/04/18 07:49:36;;;;;;;3.80;2.70;;;;;;;17.56;33.57;101874.22;4951755;28;119074;-76
2022/04/18 07:52:08;;;;;;;3.85;2.85;;;;;;;17.71;33.12;101873.31;4951664;28;118676;-76
2022/04/18 07:54:57;;;;;;;5.43;2.88;;;;;;;17.87;33.14;101872.44;4937885;28;124023;-77
2022/04/18 07:57:24;;;;;;;4.43;3.00;;;;;;;18.01;32.97;101861.75;4967174;28;123009;-76
2022/04/18 07:59:59;;;;;;;6.22;3.13;;;;;;;18.18;32.83;101870.59;4962324;28;119090;-76
2022/04/18 08:02:26;;;;;;;4.35;2.65;;;;;;;18.32;32.37;101872.44;4950024;28;119085;-76
2022/04/18 08:05:17;;;;;;;3.40;2.60;;;;;;;18.44;32.27;101866.28;4968581;28;123851;-76
2022/04/18 08:07:52;;;;;;;3.95;2.70;;;;;;;18.53;32.21;101859.50;4947154;28;123402;-76
2022/04/18 08:10:19;;;;;;;4.13;2.65;;;;;;;18.67;32.28;101862.19;4965085;28;119956;-77
2022/04/18 08:12:46;;;;;;;4.15;2.78;;;;;;;18.81;31.78;101854.16;4949011;28;119217;-77
2022/04/18 08:15:51;;;;;;;4.45;2.33;;;;;;;18.95;31.47;101860.47;4946241;28;124798;-76
2022/04/18 08:18:30;;;;;;;4.53;2.65;;;;;;;19.04;31.48;101865.22;4963244;28;123039;-75
2022/04/18 08:20:57;;;;;;;3.75;2.63;;;;;;;19.13;31.32;101858.41;4954036;28;119227;-76
2022/04/18 08:23:24;;;;;;;3.60;2.10;;;;;;;19.24;31.40;101856.75;4953242;28;119703;-77
2022/04/18 08:26:10;;;;;;;3.55;2.40;;;;;;;19.41;31.10;101862.84;4968332;28;124538;-77
2022/04/18 08:28:44;;;;;;;3.92;2.30;;;;;;;19.55;30.83;101870.88;4969009;28;123554;-78
2022/04/18 08:31:11;;;;;;;3.58;2.40;;;;;;;19.65;30.55;101855.84;4964370;28;119134;-76
2022/04/18 08:33:56;;;;;;;3.17;2.30;;;;;;;19.70;30.20;101868.09;4969483;28;118975;-77
2022/04/18 08:36:24;;;;;;;4.05;2.40;;;;;;;19.75;30.50;101861.47;4931550;28;123197;-77
2022/04/18 08:38:52;;;;;;;5.60;2.58;;;;;;;19.84;30.14;101870.75;4945561;28;123041;-77
2022/04/18 08:41:44;;;;;;;3.95;2.40;;;;;;;19.98;30.26;101867.13;4946541;28;119378;-77
2022/04/18 08:44:19;;;;;;;4.07;2.20;;;;;;;20.14;30.40;101859.72;4947708;28;118784;-77
2022/04/18 08:46:47;;;;;;;3.00;2.05;;;;;;;20.34;30.43;101863.72;4947173;28;123309;-77
2022/04/18 08:55:06;;;;;;;3.95;2.30;;;;;;;20.67;29.38;101853.38;4934039;28;118923;-74
2022/04/18 08:57:34;;;;;;;2.97;1.98;;;;;;;20.70;28.90;101848.66;4931178;28;123807;-75
2022/04/18 09:00:01;;;;;;;3.88;2.30;;;;;;;20.77;29.39;101852.59;4946400;28;123992;-75
2022/04/18 09:02:29;;;;;;;3.95;1.90;;;;;;;20.87;28.76;101849.25;4931112;28;119956;-74
2022/04/18 09:05:35;;;;;;;4.57;2.17;;;;;;;20.94;28.74;101850.50;4942994;28;120562;-75
2022/04/18 09:08:06;;;;;;;4.10;2.03;;;;;;;21.01;28.44;101846.41;4946970;28;123826;-75
2022/04/18 09:10:36;;;;;;;3.30;2.13;;;;;;;21.11;28.62;101842.06;4931515;28;122923;-74
2022/04/18 09:13:08;;;;;;;4.88;2.35;;;;;;;21.18;28.02;101835.25;4947170;28;118968;-74
2022/04/18 09:15:59;;;;;;;3.58;2.20;;;;;;;21.22;28.55;101833.19;4947002;28;118249;-73
2022/04/18 09:18:26;;;;;;;4.22;2.28;;;;;;;21.30;28.21;101829.91;4963460;28;124164;-74
2022/04/18 09:21:04;;;;;;;4.47;2.47;;;;;;;21.36;27.89;101829.44;4946533;28;122984;-74
2022/04/18 09:23:37;;;;;;;3.65;2.50;;;;;;;21.44;27.72;101829.78;4963946;28;117717;-75
2022/04/18 09:26:36;;;;;;;4.25;2.50;;;;;;;21.52;27.58;101824.66;4948152;28;118736;-75
2022/04/18 09:29:06;;;;;;;3.15;2.33;;;;;;;21.54;27.78;101822.69;4963396;28;122373;-75
2022/04/18 09:31:40;;;;;;;3.40;2.08;;;;;;;21.66;27.79;101826.31;4950606;28;123431;-75
2022/04/18 09:34:20;;;;;;;3.05;2.40;;;;;;;21.80;27.60;101819.84;4935149;28;117904;-74
2022/04/18 09:36:47;;;;;;;3.83;2.40;;;;;;;21.91;27.51;101819.88;4947954;28;118282;-75
2022/04/18 09:39:23;;;;;;;2.78;2.00;;;;;;;22.01;27.44;101821.88;4946219;28;123436;-74
2022/04/18 09:42:14;;;;;;;5.00;2.25;;;;;;;22.10;26.97;101818.44;4963163;28;124303;-74
2022/04/18 09:45:03;;;;;;;2.72;2.10;;;;;;;22.11;27.05;101820.16;4946673;28;119143;-75
2022/04/18 09:47:34;;;;;;;2.47;1.95;;;;;;;22.15;26.82;101816.22;4947208;28;118139;-75
2022/04/18 09:53:26;;;;;;;4.88;2.17;;;;;;;22.44;27.08;101805.03;4946134;28;123027;-74
2022/04/18 09:55:54;;;;;;;3.70;2.10;;;;;;;22.58;26.81;101812.84;4946273;28;118356;-75
2022/04/18 09:58:22;;;;;;;3.40;2.35;;;;;;;22.70;26.62;101803.75;4957049;28;119810;-75
2022/04/18 10:01:11;;;;;;;3.35;1.80;;;;;;;22.80;26.65;101800.31;4964162;28;123565;-75
2022/04/18 10:03:40;;;;;;;3.97;2.17;;;;;;;22.86;25.85;101794.41;4966015;28;124192;-75
2022/04/18 10:06:08;;;;;;;2.70;2.10;;;;;;;22.88;25.46;101798.69;4967434;28;119677;-75
2022/04/18 10:08:36;;;;;;;2.67;2.03;;;;;;;22.82;25.17;101792.94;4967913;28;118137;-75
2022/04/18 10:11:07;;;;;;;4.43;2.50;;;;;;;22.80;25.04;101794.91;4979196;28;124404;-74
2022/04/18 10:13:36;;;;;;;2.70;2.03;;;;;;;22.78;25.47;101797.72;4945274;28;123733;-75
2022/04/18 10:16:05;;;;;;;3.85;2.10;;;;;;;22.81;25.37;101792.09;4945882;28;118326;-75
2022/04/18 10:18:46;;;;;;;3.50;2.35;;;;;;;22.88;25.10;101787.88;4962651;28;119601;-75
2022/04/18 10:21:31;;;;;;;2.50;1.80;;;;;;;22.94;25.00;101791.91;4944600;28;124037;-75
2022/04/18 10:23:58;;;;;;;;;;;;;;;22.94;26.05;101781.09;4946568;28;121810;-75
2022/04/18 10:26:34;;;;;;;3.75;2.20;;;;;;;23.05;25.00;101780.25;4947635;28;117408;-75
2022/04/18 10:29:07;;;;;;;4.68;2.10;;;;;;;23.11;24.65;101783.31;4947875;28;118929;-75
2022/04/18 10:31:39;;;;;;;2.88;1.92;;;;;;;23.12;24.75;101779.63;4946145;28;123990;-75
2022/04/18 10:34:06;;;;;;;3.17;1.90;;;;;;;23.17;24.17;101781.94;4947761;28;123550;-75
2022/04/18 10:36:34;;;;;;;2.95;1.77;;;;;;;23.16;24.21;101777.53;4950076;28;118481;-74
2022/04/18 10:39:08;;;;;;;3.10;1.83;;;;;;;23.18;23.56;101777.41;4968972;28;118375;-74
2022/04/18 10:41:37;;;;;;;2.42;1.92;;;;;;;23.15;23.27;101773.13;4955157;28;123697;-74
2022/04/18 10:44:07;;;;;;;2.80;1.83;;;;;;;23.13;23.40;101775.94;4953440;28;124179;-74
2022/04/18 10:46:36;;;;;;;3.10;2.00;;;;;;;23.13;23.54;101772.34;4956579;28;120834;-73
2022/04/18 10:49:05;;;;;;;2.83;2.00;;;;;;;23.17;23.63;101759.44;4981928;28;119248;-75
2022/04/18 10:51:43;;;;;;;2.30;1.60;;;;;;;23.25;23.19;101767.78;4968036;28;124243;-74
2022/04/18 10:54:13;;;;;;;2.80;1.75;;;;;;;23.35;23.29;101765.16;4966644;28;123858;-74
2022/04/18 10:56:57;;;;;;;3.00;1.83;;;;;;;23.44;23.40;101767.94;4967670;28;119061;-75
2022/04/18 10:59:33;;;;;;;3.33;1.70;;;;;;;23.56;23.50;101765.19;4965798;28;118683;-75
2022/04/18 11:02:05;;;;;;;7.35;1.85;;;;;;;23.69;23.95;101755.00;4967289;28;124133;-74
2022/04/18 11:04:44;;;;;;;4.07;1.75;;;;;;;23.83;23.49;101756.56;4966702;28;122711;-74
2022/04/18 11:07:11;;;;;;;2.65;1.88;;;;;;;23.90;22.71;101764.03;4964395;28;119182;-75
2022/04/18 11:09:48;;;;;;;2.60;1.80;;;;;;;23.93;22.45;101756.63;4967181;28;119018;-74
2022/04/18 11:12:21;;;;;;;5.20;2.20;;;;;;;23.92;22.63;101749.47;4982480;28;124128;-75
2022/04/18 11:15:03;;;;;;;2.92;1.90;;;;;;;23.95;22.56;101754.63;4977356;28;123665;-74
2022/04/18 11:17:36;;;;;;;2.90;2.17;;;;;;;24.00;22.64;101757.81;4976668;28;118817;-76
2022/04/18 11:20:26;;;;;;;2.92;2.00;;;;;;;24.05;22.42;101751.00;4963768;28;118833;-75
2022/04/18 11:23:26;;;;;;;3.47;2.10;;;;;;;24.10;21.99;101742.47;4964184;28;123663;-75
2022/04/18 11:25:57;;;;;;;2.42;1.90;;;;;;;24.11;22.45;101744.19;4949273;28;124519;-75
2022/04/18 11:28:33;;;;;;;3.47;2.60;;;;;;;24.18;22.28;101734.50;4966194;28;118260;-75
2022/04/18 11:31:01;;;;;;;2.42;1.95;;;;;;;24.28;22.31;101734.56;4964851;28;119109;-74
2022/04/18 11:33:28;;;;;;;5.10;2.10;;;;;;;24.37;22.45;101738.28;4982642;28;124459;-75
2022/04/18 11:36:02;;;;;;;2.63;2.10;;;;;;;24.40;21.54;101738.03;4968893;28;123350;-75
2022/04/18 11:38:29;;;;;;;3.85;2.00;;;;;;;24.35;22.09;101734.84;4988247;28;119972;-75
2022/04/18 11:40:56;;;;;;;3.13;2.28;;;;;;;24.35;21.82;101729.44;4982964;28;119277;-75
2022/04/18 11:43:24;;;;;;;2.58;1.83;;;;;;;24.38;21.73;101730.03;4983646;28;123573;-75
2022/04/18 11:45:51;;;;;;;2.42;1.50;;;;;;;24.42;21.70;101733.31;4973042;28;123527;-75
2022/04/18 11:48:21;;;;;;;2.45;1.60;;;;;;;24.41;21.33;101734.28;4972586;28;118618;-75
2022/04/18 11:50:48;;;;;;;2.63;1.80;;;;;;;24.38;21.39;101723.75;4970611;28;118320;-74
2022/04/18 11:53:17;;;;;;;2.38;1.80;;;;;;;24.33;21.24;101728.72;4970723;28;124363;-75
2022/04/18 11:55:48;;;;;;;2.92;1.92;;;;;;;24.24;21.50;101728.56;4971705;28;124280;-75
2022/04/18 11:58:20;;;;;;;5.00;1.80;;;;;;;24.23;21.29;101726.84;4970130;28;118845;-75
2022/04/18 12:07:03;;;;;;;2.13;1.45;;;;;;;24.27;21.95;101730.97;4971123;28;124570;-75
2022/04/18 12:09:11;;;;;;;2.72;1.80;;;;;;;24.38;21.75;101723.75;4965605;28;119808;-76
2022/04/18 12:11:38;;;;;;;3.50;1.92;;;;;;;24.47;21.84;101717.53;4985243;28;118044;-76